createdAt,value
2023-03-18T00:05:37.888Z,21.8
2023-03-18T00:11:16.491Z,21.6
2023-03-18T00:16:06.767Z,21.5
2023-03-18T00:21:28.217Z,21.4
2023-03-18T00:27:20.915Z,21.4
2023-03-18T00:32:57.523Z,21.9
2023-03-18T00:38:50.760Z,22.9
2023-03-18T00:44:44.960Z,22.7
2023-03-18T00:50:06.432Z,22.3
2023-03-18T00:55:44.207Z,21.9
2023-03-18T01:01:38.628Z,21.7
2023-03-18T01:07:15.825Z,21.6
2023-03-18T01:12:56.097Z,21.4
2023-03-18T01:18:49.825Z,21.4
2023-03-18T01:24:11.305Z,21.8
2023-03-18T01:29:48.339Z,22.7
2023-03-18T01:35:41.373Z,22.9
2023-03-18T01:41:32.997Z,22.3
2023-03-18T01:47:10.406Z,21.9
2023-03-18T01:52:32.661Z,21.7
2023-03-18T01:58:24.901Z,21.6
2023-03-18T02:04:17.518Z,21.4
2023-03-18T02:10:12.126Z,21.3
2023-03-18T02:15:48.894Z,21.3
2023-03-18T02:21:10.469Z,22.2
2023-03-18T02:26:48.685Z,22.8
2023-03-18T02:32:41.346Z,22.6
2023-03-18T02:38:34.644Z,22.1
2023-03-18T02:44:28.243Z,21.7
2023-03-18T02:50:19.716Z,21.5
2023-03-18T02:56:12.004Z,21.4
2023-03-18T03:01:18.730Z,21.3
2023-03-18T03:12:33.850Z,21.6
2023-03-18T03:18:11.172Z,22.3
2023-03-18T03:24:04.697Z,22.8
2023-03-18T03:29:56.479Z,22.4
2023-03-18T03:35:18.867Z,21.9
2023-03-18T03:41:11.448Z,21.6
2023-03-18T03:47:04.707Z,21.4
2023-03-18T03:52:42.856Z,21.3
2023-03-18T04:03:56.700Z,21.1
2023-03-18T04:09:19.047Z,21.8
2023-03-18T04:15:11.640Z,22
2023-03-18T04:20:34.467Z,21.4
2023-03-18T04:26:11.620Z,22.3
2023-03-18T04:32:04.010Z,22.9
2023-03-18T04:37:56.823Z,22.3
2023-03-18T04:43:49.892Z,21.9
2023-03-18T04:49:43.108Z,21.5
2023-03-18T04:55:20.881Z,21.3
2023-03-18T05:06:55.242Z,21.1
2023-03-18T05:12:47.129Z,21.1
2023-03-18T05:18:24.221Z,22
2023-03-18T05:24:01.184Z,22.6
2023-03-18T05:29:53.690Z,22.8
2023-03-18T05:35:48.449Z,22.3
2023-03-18T05:41:40.880Z,21.9
2023-03-18T05:47:41.807Z,21.7
2023-03-18T05:53:34.766Z,21.4
2023-03-18T05:59:13.479Z,21.3
2023-03-18T06:04:36.259Z,21.2
2023-03-18T06:10:31.583Z,21.3
2023-03-18T06:16:24.212Z,22.2
2023-03-18T06:22:02.627Z,22.7
2023-03-18T06:27:55.238Z,23.1
2023-03-18T06:33:49.461Z,22.3
2023-03-18T06:39:41.856Z,22
2023-03-18T06:45:35.292Z,21.7
2023-03-18T06:51:29.929Z,21.4
2023-03-18T06:57:21.576Z,21.2
2023-03-18T07:02:59.457Z,21.2
2023-03-18T07:08:52.539Z,21.6
2023-03-18T07:14:43.761Z,22.8
2023-03-18T07:20:40.661Z,22.9
2023-03-18T07:26:19.959Z,20.9
2023-03-18T07:32:00.238Z,22
2023-03-18T07:37:54.355Z,23.2
2023-03-18T07:43:49.377Z,22.7
2023-03-18T07:49:41.877Z,22
2023-03-18T07:55:34.868Z,21.3
2023-03-18T08:01:32.902Z,21.3
2023-03-18T08:13:24.307Z,21.4
2023-03-18T08:19:17.597Z,22.8
2023-03-18T08:25:10.381Z,23.2
2023-03-18T08:31:03.981Z,22.3
2023-03-18T08:37:00.151Z,21.9
2023-03-18T08:42:36.554Z,21.6
2023-03-18T08:48:29.790Z,21.4
2023-03-18T08:54:06.947Z,22.3
2023-03-18T08:59:43.608Z,23.2
2023-03-18T09:05:06.281Z,22.4
2023-03-18T09:11:06.480Z,22
2023-03-18T09:16:58.689Z,21.8
2023-03-18T09:23:18.000Z,22.2
2023-03-18T09:29:10.873Z,23.2
2023-03-18T09:35:02.777Z,22.6
2023-03-18T09:40:57.387Z,22.1
2023-03-18T09:46:50.350Z,21.9
2023-03-18T09:52:43.257Z,22.6
2023-03-18T09:58:20.418Z,22.9
2023-03-18T10:04:13.349Z,22.3
2023-03-18T10:09:50.009Z,22.1
2023-03-18T10:15:42.841Z,22.1
2023-03-18T10:21:21.617Z,23.3
2023-03-18T10:27:25.075Z,22.8
2023-03-18T10:33:36.050Z,22.2
2023-03-18T10:39:14.325Z,21.8
2023-03-18T10:45:06.670Z,22.5
2023-03-18T10:51:00.106Z,23
2023-03-18T10:56:52.533Z,22.3
2023-03-18T11:02:45.539Z,22
2023-03-18T11:08:38.419Z,21.8
2023-03-18T11:14:31.434Z,22.8
2023-03-18T11:20:24.655Z,22.8
2023-03-18T11:26:17.828Z,22.2
2023-03-18T11:32:20.219Z,21.9
2023-03-18T11:38:14.905Z,22.2
2023-03-18T11:44:12.269Z,23.1
2023-03-18T11:49:49.827Z,22.5
2023-03-18T11:55:11.725Z,22.2
2023-03-18T12:00:34.637Z,22
2023-03-18T12:05:56.889Z,22.7
2023-03-18T12:11:51.904Z,23.3
2023-03-18T12:17:46.754Z,22.5
2023-03-18T12:23:24.766Z,22.1
2023-03-18T12:28:46.524Z,21.9
2023-03-18T12:34:23.968Z,22.9
2023-03-18T12:40:20.190Z,22.9
2023-03-18T12:46:12.664Z,22.3
2023-03-18T12:52:02.325Z,22.1
2023-03-18T12:57:55.258Z,22
2023-03-18T13:03:38.578Z,23.1
2023-03-18T13:09:16.669Z,22.6
2023-03-18T13:15:12.401Z,22.2
2023-03-18T13:20:51.049Z,21.9
2023-03-18T13:26:44.343Z,22.1
2023-03-18T13:32:38.206Z,23.1
2023-03-18T13:38:32.760Z,22.5
2023-03-18T13:44:26.040Z,22.1
2023-03-18T13:50:04.528Z,21.8
2023-03-18T13:55:57.149Z,22.2
2023-03-18T14:01:50.861Z,22.9
2023-03-18T14:07:44.931Z,22.2
2023-03-18T14:13:54.147Z,21.9
2023-03-18T14:19:34.871Z,21.6
2023-03-18T14:24:58.490Z,21.4
2023-03-18T14:30:20.938Z,21.4
2023-03-18T14:35:58.451Z,21.2
2023-03-18T14:41:51.022Z,21.1
2023-03-18T14:47:39.663Z,21.1
2023-03-18T14:53:17.319Z,20.9
2023-03-18T14:59:09.201Z,20.8
2023-03-18T15:05:01.993Z,20.8
2023-03-18T15:10:53.089Z,20.7
2023-03-18T15:16:29.976Z,20.7
2023-03-18T15:22:22.597Z,20.7
2023-03-18T15:28:00.370Z,20.6
2023-03-18T15:33:53.515Z,20.5
2023-03-18T15:39:46.589Z,20.4
2023-03-18T15:45:23.610Z,20.4
2023-03-18T15:51:17.040Z,20.4
2023-03-18T15:56:55.324Z,20.3
2023-03-18T16:02:47.570Z,20.3
2023-03-18T16:08:40.159Z,20.3
2023-03-18T16:14:33.187Z,20.1
2023-03-18T16:20:10.893Z,20.1
2023-03-18T16:26:04.717Z,20.1
2023-03-18T16:31:56.706Z,20
2023-03-18T16:37:34.719Z,19.9
2023-03-18T16:43:27.500Z,20.1
2023-03-18T16:48:49.906Z,20.1
2023-03-18T16:54:42.091Z,21
2023-03-18T17:00:19.623Z,23.5
2023-03-18T17:05:57.265Z,24.3
2023-03-18T17:11:50.382Z,25.1
2023-03-18T17:17:30.227Z,25.5
2023-03-18T17:23:22.163Z,25.1
2023-03-18T17:28:59.569Z,25.1
2023-03-18T17:34:55.767Z,24.8
2023-03-18T17:40:32.845Z,24.9
2023-03-18T17:46:10.486Z,25.8
2023-03-18T17:52:03.637Z,25.4
2023-03-18T17:57:39.902Z,25.6
2023-03-18T18:03:33.650Z,27
2023-03-18T18:08:55.616Z,27.1
2023-03-18T18:14:32.441Z,27.2
2023-03-18T18:20:28.476Z,27.5
2023-03-18T18:26:07.335Z,27.2
2023-03-18T18:31:47.754Z,28.3
2023-03-18T18:37:10.442Z,27.5
2023-03-18T18:43:03.406Z,28.3
2023-03-18T18:48:40.404Z,28
2023-03-18T18:54:18.848Z,30
2023-03-18T19:00:12.398Z,29.8
2023-03-18T19:05:50.812Z,30.1
2023-03-18T19:11:43.778Z,30.4
2023-03-18T19:17:22.534Z,31.4
2023-03-18T19:23:14.859Z,31.5
2023-03-18T19:28:59.558Z,31.1
2023-03-18T19:34:52.657Z,31.5
2023-03-18T19:40:30.130Z,30.3
2023-03-18T19:46:25.226Z,31.1
2023-03-18T19:52:04.705Z,29.9
2023-03-18T19:57:57.130Z,30
2023-03-18T20:03:53.815Z,30.9
2023-03-18T20:09:47.711Z,31.4
2023-03-18T20:15:39.742Z,29.4
2023-03-18T20:21:33.343Z,29.9
2023-03-18T20:27:10.029Z,30.3
2023-03-18T20:32:32.629Z,29.9
2023-03-18T20:37:55.429Z,29.2
2023-03-18T20:43:01.833Z,28.4
2023-03-18T20:48:39.553Z,27.8
2023-03-18T20:54:32.569Z,26.9
2023-03-18T21:00:09.532Z,26.3
2023-03-18T21:06:03.336Z,25.8
2023-03-18T21:11:41.131Z,25.4
2023-03-18T21:17:34.608Z,24.9
2023-03-18T21:23:40.093Z,24.1
2023-03-18T21:29:48.123Z,23.6
2023-03-18T21:35:29.176Z,23.1
2023-03-18T21:41:21.881Z,22.8
2023-03-18T21:47:00.188Z,22.6
2023-03-18T21:53:06.979Z,22.4
2023-03-18T21:58:59.312Z,22.2
2023-03-18T22:04:52.839Z,22.1
2023-03-18T22:10:29.640Z,22
2023-03-18T22:15:50.866Z,21.9
2023-03-18T22:21:44.809Z,21.8
2023-03-18T22:26:51.783Z,21.6
2023-03-18T22:32:28.909Z,21.6
2023-03-18T22:38:23.125Z,21.6
2023-03-18T22:44:14.956Z,22
2023-03-18T22:49:54.659Z,23.1
2023-03-18T22:55:31.752Z,22.8
2023-03-18T23:01:26.753Z,22.4
2023-03-18T23:06:49.752Z,22
2023-03-18T23:12:56.897Z,21.9
2023-03-18T23:18:50.120Z,21.8
2023-03-18T23:24:43.397Z,21.7
2023-03-18T23:30:40.491Z,21.5
2023-03-18T23:35:47.803Z,21.4
2023-03-18T23:41:40.524Z,21.4
2023-03-18T23:47:35.713Z,22.4
2023-03-18T23:53:29.057Z,23.1
2023-03-18T23:59:43.551Z,22.4
